Time;durP1;ratioP1;P1;durP2;ratioP2;P2;SDS_P1;SDS_P2;PMS_P1;PMS_P2;Temp;Humidity;BMP_temperature;BMP_pressure;BME280_temperature;BME280_humidity;BME280_pressure;Samples;Min_cycle;Max_cycle;Signal;HPM_P1;HPM_P2
2022/02/03 00:00:22;;;;;;;6.13;1.30;;;19.00;70.50;;;;;;5024537;28;96148;-44
2022/02/03 00:16:44;;;;;;;4.47;1.60;;;19.10;70.70;;;;;;5019073;27;95714;-51
2022/02/03 00:24:44;;;;;;;3.22;1.20;;;19.50;70.50;;;;;;5025377;28;95947;-47
2022/02/03 00:28:02;;;;;;;4.05;1.15;;;19.60;70.50;;;;;;5022687;27;95903;-49
2022/02/03 00:33:31;;;;;;;4.47;1.33;;;19.70;70.60;;;;;;5023567;28;95832;-44
2022/02/03 00:36:13;;;;;;;1.88;0.90;;;19.80;70.60;;;;;;5023184;28;95895;-43
2022/02/03 00:50:10;;;;;;;2.30;1.08;;;20.20;70.60;;;;;;5023646;28;95899;-43
2022/02/03 00:52:41;;;;;;;1.30;0.95;;;20.30;70.50;;;;;;5023486;27;98994;-44
2022/02/03 00:55:11;;;;;;;2.30;1.20;;;20.30;70.50;;;;;;5024200;27;96022;-45
2022/02/03 00:57:52;;;;;;;3.95;1.13;;;20.40;70.40;;;;;;5020086;28;95704;-43
2022/02/03 01:00:24;;;;;;;2.50;0.73;;;20.40;70.40;;;;;;5010478;28;97740;-45
2022/02/03 01:03:17;;;;;;;2.03;1.05;;;20.50;70.20;;;;;;5000396;28;96993;-46
2022/02/03 01:05:48;;;;;;;1.00;0.57;;;20.60;70.20;;;;;;5016732;28;97687;-47
2022/02/03 01:08:23;;;;;;;1.48;0.80;;;20.70;70.20;;;;;;5022972;28;95734;-44
2022/02/03 01:11:15;;;;;;;1.25;0.80;;;20.80;70.20;;;;;;5023801;28;95821;-45
2022/02/03 01:13:54;;;;;;;1.80;0.75;;;20.80;70.00;;;;;;5024301;28;96640;-45
2022/02/03 01:45:48;;;;;;;0.80;0.55;;;21.50;69.10;;;;;;5000225;28;95531;-46
2022/02/03 01:54:00;;;;;;;3.20;1.20;;;21.70;65.50;;;;;;5005955;28;95760;-53
2022/02/03 01:56:51;;;;;;;5.57;1.50;;;21.40;64.80;;;;;;5015286;28;96054;-49
2022/02/03 01:59:25;;;;;;;4.88;1.17;;;21.20;65.20;;;;;;5016335;28;96317;-48
2022/02/03 02:02:03;;;;;;;4.13;1.25;;;21.10;65.50;;;;;;5011382;27;96097;-46
2022/02/03 02:04:39;;;;;;;6.15;1.38;;;21.00;65.70;;;;;;5016955;28;95872;-45
2022/02/03 02:07:54;;;;;;;3.58;1.08;;;21.10;66.00;;;;;;5024060;28;95780;-50
2022/02/03 02:14:05;;;;;;;2.40;0.70;;;21.40;66.10;;;;;;5019180;28;96577;-47
2022/02/03 02:17:47;;;;;;;3.17;1.52;;;21.60;66.00;;;;;;5016697;27;95695;-44
2022/02/03 02:43:01;;;;;;;2.15;0.68;;;21.90;65.90;;;;;;5024037;28;95683;-47
2022/02/03 02:45:44;;;;;;;2.05;1.13;;;22.00;66.00;;;;;;5019872;27;96105;-45
2022/02/03 02:48:23;;;;;;;1.45;0.82;;;22.00;65.90;;;;;;5025640;27;96295;-48
2022/02/03 02:51:04;;;;;;;1.77;0.73;;;22.10;65.90;;;;;;5025474;28;95613;-48
2022/02/03 02:56:37;;;;;;;1.48;0.98;;;22.10;65.90;;;;;;5024175;28;96040;-44
2022/02/03 03:02:32;;;;;;;2.03;0.75;;;22.10;66.00;;;;;;5021883;27;96878;-44
2022/02/03 03:36:01;;;;;;;2.53;0.80;;;22.60;66.10;;;;;;5023852;27;95798;-43
2022/02/03 03:38:36;;;;;;;1.13;0.77;;;22.70;66.20;;;;;;5021610;27;95716;-44
2022/02/03 03:41:07;;;;;;;1.85;0.88;;;22.70;66.10;;;;;;5019801;28;99394;-43
2022/02/03 03:43:41;;;;;;;;;;;22.70;66.10;;;;;;5023462;27;95912;-47
2022/02/03 03:46:29;;;;;;;3.00;1.42;;;22.60;63.30;;;;;;5022066;27;95339;-49
2022/02/03 03:49:07;;;;;;;2.90;1.05;;;22.30;62.90;;;;;;5026130;28;95856;-52
2022/02/03 03:51:48;;;;;;;4.47;1.50;;;22.10;63.20;;;;;;5019122;28;96171;-49
2022/02/03 03:54:34;;;;;;;3.78;1.40;;;22.00;63.30;;;;;;5022005;28;95570;-47
2022/02/03 03:57:22;;;;;;;5.40;1.58;;;21.90;63.30;;;;;;5023835;28;95208;-48
2022/02/03 05:03:31;;;;;;;2.30;1.13;;;21.60;63.40;;;;;;5022064;28;105079;-44
2022/02/03 05:06:37;;;;;;;6.80;1.88;;;21.60;63.30;;;;;;5022680;28;95728;-43
2022/02/03 05:10:05;;;;;;;4.82;1.65;;;21.60;63.30;;;;;;5017306;28;95709;-44
2022/02/03 05:13:27;;;;;;;4.47;1.30;;;21.70;63.20;;;;;;4948577;28;95397;-51
2022/02/03 05:17:05;;;;;;;3.58;1.42;;;21.70;63.30;;;;;;5011879;27;96557;-48
2022/02/03 05:26:34;;;;;;;2.30;1.30;;;22.20;63.40;;;;;;5022650;28;95816;-51
2022/02/03 06:07:40;;;;;;;3.97;1.10;;;22.00;61.70;;;;;;5012814;27;95694;-47
2022/02/03 06:13:08;;;;;;;3.28;1.45;;;22.00;61.90;;;;;;5017839;27;96111;-47
2022/02/03 06:15:48;;;;;;;2.90;1.50;;;22.00;61.70;;;;;;5013797;28;96179;-44
2022/02/03 06:21:53;;;;;;;3.92;1.33;;;22.00;62.30;;;;;;5027282;28;95858;-42
2022/02/03 06:24:32;;;;;;;4.18;1.63;;;22.00;61.50;;;;;;5016122;28;95699;-42
2022/02/03 06:29:42;;;;;;;3.35;1.48;;;22.00;61.40;;;;;;5017925;28;96278;-43
2022/02/03 06:32:14;;;;;;;2.83;1.20;;;22.00;61.30;;;;;;5010481;28;96652;-41
2022/02/03 06:34:45;;;;;;;4.28;1.40;;;22.00;61.30;;;;;;5024242;28;95441;-43
2022/02/03 06:37:16;;;;;;;6.53;1.52;;;22.00;61.30;;;;;;5021784;28;96957;-44
2022/02/03 06:39:47;;;;;;;2.93;1.60;;;22.00;61.10;;;;;;5020934;28;96020;-44
2022/02/03 06:42:19;;;;;;;5.20;1.75;;;22.00;61.20;;;;;;5024604;28;95814;-44
2022/02/03 06:44:58;;;;;;;3.88;1.10;;;21.90;60.70;;;;;;5019261;28;96247;-44
2022/02/03 06:47:37;;;;;;;3.13;1.20;;;21.80;61.10;;;;;;5005291;28;100627;-48
2022/02/03 06:50:27;;;;;;;4.85;1.73;;;21.80;61.20;;;;;;5021687;28;96399;-43
2022/02/03 06:53:08;;;;;;;2.83;1.27;;;21.80;61.20;;;;;;5025395;28;95599;-45
2022/02/03 06:58:34;;;;;;;8.13;1.38;;;21.80;60.70;;;;;;5021965;28;96133;-45
2022/02/03 07:01:15;;;;;;;5.70;1.50;;;21.70;60.40;;;;;;5019143;28;97450;-43
2022/02/03 07:03:59;;;;;;;6.10;1.70;;;21.60;60.30;;;;;;5026770;28;95818;-45
2022/02/03 07:06:32;;;;;;;4.30;1.73;;;21.60;60.10;;;;;;5026162;28;96143;-45
2022/02/03 07:09:09;;;;;;;3.78;1.75;;;21.60;60.30;;;;;;5016961;28;96460;-45
2022/02/03 07:11:40;;;;;;;3.78;1.20;;;21.50;60.20;;;;;;5018493;28;95898;-45
2022/02/03 07:14:12;;;;;;;3.03;1.45;;;21.50;60.60;;;;;;5017013;28;95189;-45
2022/02/03 07:16:49;;;;;;;6.55;1.50;;;21.50;60.10;;;;;;5006334;28;98257;-45
2022/02/03 07:19:21;;;;;;;3.42;1.30;;;21.50;59.90;;;;;;5007085;28;96475;-46
2022/02/03 07:21:51;;;;;;;4.20;1.42;;;21.50;59.90;;;;;;5022310;27;95837;-45
2022/02/03 07:24:23;;;;;;;5.43;1.50;;;21.50;60.00;;;;;;5019066;28;95741;-45
2022/02/03 07:26:54;;;;;;;2.80;1.23;;;21.50;59.80;;;;;;5014828;28;95731;-45
2022/02/03 07:29:25;;;;;;;6.88;2.13;;;21.50;59.70;;;;;;5016865;28;96393;-45
2022/02/03 07:31:56;;;;;;;4.22;1.70;;;21.40;59.70;;;;;;5014941;28;98688;-44
2022/02/03 07:34:27;;;;;;;;;;;21.40;59.70;;;;;;5022345;28;95637;-45
2022/02/03 07:36:58;;;;;;;5.60;1.50;;;21.40;59.80;;;;;;5019614;27;95663;-45
2022/02/03 07:39:29;;;;;;;;;;;21.40;59.90;;;;;;5020599;28;97132;-45
2022/02/03 07:42:00;;;;;;;5.80;1.47;;;21.40;59.80;;;;;;5015921;28;95812;-45
2022/02/03 07:44:32;;;;;;;4.37;1.53;;;21.30;59.80;;;;;;5015928;27;95748;-42
2022/02/03 07:47:04;;;;;;;5.40;1.65;;;21.30;59.80;;;;;;5007051;28;95847;-44
2022/02/03 07:49:36;;;;;;;5.63;1.73;;;21.30;60.40;;;;;;5017108;28;96525;-42
2022/02/03 07:52:05;;;;;;;;;;;21.30;59.90;;;;;;5023435;28;96447;-45
2022/02/03 07:54:36;;;;;;;7.35;2.40;;;21.30;60.00;;;;;;5019035;28;95435;-45
2022/02/03 07:57:07;;;;;;;8.38;2.83;;;21.30;60.20;;;;;;5014819;28;96144;-45
2022/02/03 07:59:38;;;;;;;7.40;3.97;;;21.20;60.20;;;;;;5012802;28;96574;-45
2022/02/03 08:02:09;;;;;;;6.47;3.42;;;21.20;60.20;;;;;;5007471;28;95960;-44
2022/02/03 08:04:44;;;;;;;11.63;5.20;;;21.20;60.30;;;;;;5014175;28;95827;-45
2022/02/03 08:07:18;;;;;;;11.80;4.13;;;21.20;61.00;;;;;;5021488;28;95289;-45
2022/02/03 08:10:09;;;;;;;13.68;5.40;;;21.20;60.60;;;;;;5013974;28;96924;-45
2022/02/03 08:12:40;;;;;;;11.27;5.15;;;21.20;60.80;;;;;;5010586;28;95844;-44
2022/02/03 08:15:14;;;;;;;11.48;5.07;;;21.20;60.90;;;;;;5010328;27;96182;-45
2022/02/03 08:17:46;;;;;;;11.32;4.63;;;21.20;61.10;;;;;;5021929;28;95891;-45
2022/02/03 08:20:19;;;;;;;10.38;4.82;;;21.20;61.10;;;;;;5017538;28;96179;-45
2022/02/03 08:23:28;;;;;;;9.32;4.70;;;21.20;61.20;;;;;;5021173;28;95971;-45
2022/02/03 08:25:56;;;;;;;12.65;5.15;;;21.20;61.30;;;;;;5013493;28;96338;-45
2022/02/03 08:28:54;;;;;;;11.15;4.43;;;21.20;61.40;;;;;;5012696;27;95627;-45
2022/02/03 08:31:39;;;;;;;8.02;3.75;;;21.20;61.30;;;;;;5008261;27;96346;-45
2022/02/03 08:34:15;;;;;;;7.75;3.97;;;21.10;61.40;;;;;;5012517;28;95837;-45
2022/02/03 08:36:47;;;;;;;8.57;4.00;;;21.10;61.40;;;;;;5014516;28;96260;-45
2022/02/03 08:39:20;;;;;;;9.00;3.88;;;21.10;61.50;;;;;;5015210;28;95392;-45
2022/02/03 08:41:52;;;;;;;8.73;3.60;;;21.10;61.60;;;;;;4997382;28;96627;-45
2022/02/03 08:44:23;;;;;;;8.90;3.70;;;21.10;61.70;;;;;;5014569;27;95999;-45
2022/02/03 08:46:54;;;;;;;8.93;2.83;;;21.00;61.80;;;;;;5008538;28;95727;-45
2022/02/03 08:49:25;;;;;;;9.88;3.35;;;21.00;61.90;;;;;;5020015;28;95705;-43
2022/02/03 08:52:04;;;;;;;;;;;20.90;62.00;;;;;;5019007;28;96989;-42
2022/02/03 08:54:37;;;;;;;6.88;3.05;;;20.90;62.20;;;;;;5017545;28;96201;-45
2022/02/03 08:57:18;;;;;;;9.07;2.67;;;20.90;62.50;;;;;;5022297;27;95965;-44
2022/02/03 09:00:20;;;;;;;8.47;3.40;;;20.90;62.50;;;;;;5026789;28;96566;-42
2022/02/03 09:34:44;;;;;;;12.38;3.22;;;20.50;63.30;;;;;;5028368;28;95847;-43
2022/02/03 09:58:40;;;;;;;11.10;2.35;;;20.40;63.90;;;;;;5025898;28;96675;-43
2022/02/03 10:01:14;;;;;;;7.35;2.42;;;20.40;64.10;;;;;;5002546;28;96320;-42
2022/02/03 10:06:17;;;;;;;4.30;1.75;;;20.30;64.10;;;;;;5026078;28;95748;-43
2022/02/03 10:08:55;;;;;;;4.82;1.83;;;20.30;64.30;;;;;;5028976;27;97068;-44
2022/02/03 10:11:29;;;;;;;6.03;2.10;;;20.30;64.40;;;;;;5023629;27;95873;-42
2022/02/03 10:14:03;;;;;;;7.28;2.40;;;20.20;64.50;;;;;;5027646;28;95562;-42
2022/02/03 10:16:37;;;;;;;5.95;1.95;;;20.20;64.70;;;;;;5027025;27;95630;-42
2022/02/03 10:19:15;;;;;;;4.50;1.80;;;20.20;64.80;;;;;;5028646;28;96685;-42
2022/02/03 10:21:50;;;;;;;5.50;2.13;;;20.20;64.90;;;;;;5010254;28;95853;-42
2022/02/03 10:24:29;;;;;;;6.00;2.13;;;20.20;64.90;;;;;;5023198;28;95779;-42
2022/02/03 10:27:01;;;;;;;5.97;1.67;;;20.10;64.90;;;;;;5028194;28;95746;-42
2022/02/03 10:29:40;;;;;;;4.18;1.25;;;20.20;65.00;;;;;;5030917;28;96094;-42
2022/02/03 10:32:13;;;;;;;3.42;1.73;;;20.20;64.90;;;;;;5022339;28;95938;-45
2022/02/03 10:34:46;;;;;;;3.67;2.22;;;20.20;64.90;;;;;;5029692;28;97609;-42
2022/02/03 10:37:28;;;;;;;6.10;1.65;;;20.10;65.00;;;;;;5026138;28;95786;-42
2022/02/03 10:40:28;;;;;;;5.38;2.00;;;20.10;65.10;;;;;;5016856;28;96180;-42
2022/02/03 10:48:38;;;;;;;4.03;1.23;;;20.10;65.40;;;;;;5016558;28;95997;-42
2022/02/03 10:54:16;;;;;;;4.13;1.70;;;20.00;65.50;;;;;;5016429;27;95846;-42
2022/02/03 10:57:31;;;;;;;4.25;2.13;;;20.00;65.70;;;;;;5018612;28;95861;-42
2022/02/03 11:07:49;;;;;;;2.30;1.23;;;19.90;66.10;;;;;;5027142;27;95798;-41
2022/02/03 11:10:42;;;;;;;2.35;1.65;;;19.90;65.90;;;;;;5027244;28;95421;-41
2022/02/03 11:13:15;;;;;;;4.25;1.50;;;20.00;65.90;;;;;;5028299;28;96511;-41
2022/02/03 11:15:49;;;;;;;5.63;1.30;;;19.90;65.90;;;;;;5021246;28;95593;-41
2022/02/03 11:18:21;;;;;;;5.80;1.70;;;19.90;66.00;;;;;;5025470;28;95721;-40
2022/02/03 11:20:53;;;;;;;5.70;1.65;;;19.90;66.10;;;;;;5030310;28;95698;-40
2022/02/03 11:26:28;;;;;;;4.30;1.48;;;19.90;66.10;;;;;;5026401;28;96016;-41
2022/02/03 12:14:19;;;;;;;5.80;1.85;;;19.60;67.10;;;;;;5016617;28;95921;-42
2022/02/03 12:16:59;;;;;;;5.55;1.75;;;19.60;67.40;;;;;;5010033;28;96065;-42
2022/02/03 12:19:52;;;;;;;8.82;1.13;;;19.60;67.50;;;;;;5003080;28;96440;-42
2022/02/03 12:23:12;;;;;;;7.10;1.90;;;19.60;67.60;;;;;;5014240;28;95900;-42
2022/02/03 12:25:40;;;;;;;6.82;1.40;;;19.60;67.60;;;;;;4980429;28;97231;-42
2022/02/03 12:28:25;;;;;;;5.00;1.70;;;19.60;67.70;;;;;;5013098;28;95963;-42
2022/02/03 12:39:16;;;;;;;4.88;1.20;;;19.70;68.20;;;;;;5004502;28;96094;-41
2022/02/03 12:42:07;;;;;;;4.22;1.48;;;19.80;68.20;;;;;;5021919;28;97346;-42
2022/02/03 12:44:41;;;;;;;3.93;1.20;;;19.90;68.20;;;;;;4996305;28;95656;-40
2022/02/03 12:47:14;;;;;;;4.22;1.70;;;19.90;67.90;;;;;;5016467;27;96537;-43
2022/02/03 12:49:52;;;;;;;1.40;0.70;;;20.00;65.10;;;;;;5023869;28;95909;-49
2022/02/03 12:52:31;;;;;;;2.53;1.02;;;20.10;68.00;;;;;;5023055;28;96122;-49
2022/02/03 12:55:03;;;;;;;2.80;1.23;;;20.30;67.90;;;;;;5023678;28;96306;-50
2022/02/03 12:57:36;;;;;;;4.10;1.00;;;20.50;67.60;;;;;;5024643;28;95339;-47
2022/02/03 13:00:16;;;;;;;3.53;1.40;;;20.50;67.30;;;;;;5025091;27;95758;-49
2022/02/03 13:03:10;;;;;;;3.00;1.08;;;20.70;67.00;;;;;;5024135;28;102887;-50
2022/02/03 13:05:43;;;;;;;1.45;1.00;;;20.80;66.90;;;;;;5024500;28;97505;-50
2022/02/03 13:08:14;;;;;;;1.75;1.10;;;20.90;66.80;;;;;;5022541;28;95628;-50
2022/02/03 13:10:53;;;;;;;2.20;1.23;;;21.00;67.20;;;;;;5025084;28;96784;-54
2022/02/03 13:13:34;;;;;;;4.40;0.88;;;21.10;66.40;;;;;;5020682;28;96973;-53
2022/02/03 13:16:11;;;;;;;1.13;0.80;;;21.10;66.20;;;;;;5018561;28;97848;-52
2022/02/03 13:18:50;;;;;;;3.25;1.10;;;21.20;66.70;;;;;;5022219;28;95941;-56
2022/02/03 13:27:03;;;;;;;5.05;1.75;;;21.50;65.60;;;;;;5021333;28;95839;-52
2022/02/03 13:29:55;;;;;;;3.95;1.70;;;21.20;63.80;;;;;;5013264;28;95869;-51
2022/02/03 13:32:35;;;;;;;2.05;1.13;;;20.80;63.80;;;;;;5003362;28;95546;-53
2022/02/03 13:37:51;;;;;;;4.20;1.38;;;20.40;64.70;;;;;;5014219;28;96054;-51
2022/02/03 13:40:26;;;;;;;5.07;1.67;;;20.20;65.20;;;;;;5018467;28;97786;-55
2022/02/03 13:43:15;;;;;;;4.30;1.40;;;20.10;65.60;;;;;;5018686;28;95695;-54
2022/02/03 13:45:46;;;;;;;2.92;1.73;;;20.10;65.80;;;;;;5022638;27;96852;-52
2022/02/03 13:48:20;;;;;;;4.13;1.45;;;20.00;65.80;;;;;;5026334;28;96573;-55
2022/02/03 13:50:57;;;;;;;3.55;1.58;;;20.00;65.90;;;;;;5025616;28;95852;-56
2022/02/03 14:22:13;;;;;;;3.88;1.45;;;19.30;66.80;;;;;;5024880;28;95916;-52
2022/02/03 14:27:57;;;;;;;5.57;1.98;;;19.30;66.70;;;;;;5027484;27;95472;-51
2022/02/03 14:30:29;;;;;;;2.95;1.27;;;19.30;66.90;;;;;;5024788;27;96003;-53
2022/02/03 14:33:01;;;;;;;3.25;1.13;;;19.20;66.90;;;;;;5028736;27;101792;-53
2022/02/03 14:35:35;;;;;;;2.63;1.27;;;19.20;67.00;;;;;;5027876;27;95456;-54
2022/02/03 14:38:17;;;;;;;6.78;2.03;;;19.10;67.00;;;;;;5022906;28;95810;-53
2022/02/03 14:41:11;;;;;;;3.72;1.33;;;19.00;67.10;;;;;;5030123;27;96106;-54
2022/02/03 14:43:42;;;;;;;2.80;1.10;;;19.00;67.20;;;;;;5029962;27;95965;-51
2022/02/03 14:46:32;;;;;;;2.70;1.35;;;19.00;67.30;;;;;;5022169;27;97241;-51
2022/02/03 14:49:03;;;;;;;3.63;1.40;;;19.00;67.30;;;;;;5029644;27;95754;-53
2022/02/03 14:51:44;;;;;;;3.23;1.20;;;18.90;67.40;;;;;;5026587;28;96184;-53
2022/02/03 14:59:42;;;;;;;4.32;1.55;;;18.80;67.50;;;;;;5030096;28;95931;-53
2022/02/03 15:02:12;;;;;;;2.83;1.17;;;18.70;67.50;;;;;;5022720;28;96871;-55
2022/02/03 15:04:52;;;;;;;3.13;1.60;;;18.70;67.60;;;;;;5027260;28;95457;-51
2022/02/03 15:07:24;;;;;;;4.90;1.60;;;18.70;67.70;;;;;;5029641;28;95577;-50
2022/02/03 15:10:16;;;;;;;5.18;1.10;;;18.70;67.80;;;;;;5029199;28;95971;-52
2022/02/03 15:13:10;;;;;;;2.78;1.33;;;18.60;67.80;;;;;;5029485;28;98706;-50
2022/02/03 15:15:42;;;;;;;3.80;1.40;;;18.60;67.90;;;;;;5024053;27;99175;-50
2022/02/03 15:18:17;;;;;;;3.63;1.42;;;18.50;67.90;;;;;;5028562;28;95249;-53
2022/02/03 15:20:48;;;;;;;3.47;1.55;;;18.50;67.90;;;;;;5027461;28;95744;-51
2022/02/03 15:23:18;;;;;;;;;;;18.50;61.00;;;;;;5028324;28;96116;-51
2022/02/03 15:25:50;;;;;;;4.03;1.58;;;18.40;67.90;;;;;;5005927;28;95736;-55
2022/02/03 15:28:22;;;;;;;2.30;1.02;;;18.40;68.00;;;;;;5028211;28;95723;-50
2022/02/03 15:30:54;;;;;;;5.05;1.75;;;18.40;68.10;;;;;;5026651;27;95681;-50
2022/02/03 15:33:28;;;;;;;5.22;1.80;;;18.40;68.10;;;;;;5028492;28;96938;-52
2022/02/03 15:36:03;;;;;;;3.97;1.60;;;18.30;68.10;;;;;;5028614;28;97072;-50
2022/02/03 15:38:37;;;;;;;4.15;1.63;;;18.30;68.10;;;;;;5027415;27;95722;-50
2022/02/03 15:41:08;;;;;;;4.43;1.48;;;18.20;68.10;;;;;;5026563;28;95779;-51
2022/02/03 15:43:41;;;;;;;4.30;1.87;;;18.20;68.20;;;;;;5028758;28;96183;-50
2022/02/03 15:46:14;;;;;;;3.10;1.63;;;18.20;68.20;;;;;;5023454;28;95941;-49
2022/02/03 15:49:04;;;;;;;3.63;1.38;;;18.20;68.20;;;;;;5027553;28;95872;-50
2022/02/03 15:56:18;;;;;;;5.93;2.08;;;18.10;68.20;;;;;;5029629;28;95844;-50
2022/02/03 15:58:12;;;;;;;4.63;1.60;;;18.10;68.30;;;;;;5027283;28;96439;-49
2022/02/03 16:03:06;;;;;;;5.32;1.45;;;18.10;68.30;;;;;;5027566;28;95977;-50
2022/02/03 16:19:29;;;;;;;5.22;1.67;;;17.90;68.30;;;;;;5026710;28;96044;-49
2022/02/03 16:22:06;;;;;;;5.18;2.08;;;17.90;68.40;;;;;;5027968;28;95831;-49
2022/02/03 16:24:57;;;;;;;4.30;1.40;;;17.90;68.40;;;;;;5027250;27;95745;-49
2022/02/03 16:52:48;;;;;;;9.00;1.55;;;17.70;61.60;;;;;;5022897;27;95705;-49
2022/02/03 16:55:22;;;;;;;5.90;1.58;;;17.60;68.60;;;;;;5026967;27;95923;-49
2022/02/03 16:57:56;;;;;;;2.75;1.10;;;17.60;68.60;;;;;;5029285;27;95905;-50
2022/02/03 17:00:26;;;;;;;2.40;1.30;;;17.60;68.70;;;;;;5019593;27;96534;-50
2022/02/03 17:03:01;;;;;;;2.97;0.90;;;17.50;68.60;;;;;;5025878;28;96353;-50
2022/02/03 17:05:38;;;;;;;4.40;1.30;;;17.50;68.70;;;;;;5027446;28;95609;-50
2022/02/03 17:08:09;;;;;;;1.88;1.02;;;17.50;68.70;;;;;;5027647;27;95253;-50
2022/02/03 17:10:40;;;;;;;3.35;1.58;;;17.50;68.80;;;;;;5032001;27;96495;-49
2022/02/03 17:13:10;;;;;;;3.87;1.60;;;17.50;68.80;;;;;;5026658;28;95627;-49
2022/02/03 17:15:42;;;;;;;1.95;0.95;;;17.40;68.80;;;;;;5021242;27;96389;-50
2022/02/03 17:18:14;;;;;;;6.82;1.75;;;17.40;68.80;;;;;;5025684;28;95841;-50
2022/02/03 17:20:46;;;;;;;2.97;1.40;;;17.40;68.90;;;;;;5026667;28;95885;-50
2022/02/03 17:23:21;;;;;;;5.18;1.23;;;17.40;68.90;;;;;;5026726;28;96446;-50
2022/02/03 17:26:14;;;;;;;5.57;1.65;;;17.40;69.00;;;;;;5026083;28;95969;-50
2022/02/03 17:28:53;;;;;;;3.40;1.50;;;17.40;69.00;;;;;;5025422;27;96106;-49
2022/02/03 18:10:26;;;;;;;1.75;0.85;;;17.10;69.20;;;;;;5029085;28;95842;-50
2022/02/03 18:19:39;;;;;;;2.47;1.08;;;17.10;69.30;;;;;;5030591;28;95740;-49
2022/02/03 18:49:58;;;;;;;2.03;1.45;;;16.90;70.10;;;;;;5028905;28;96555;-49
2022/02/03 18:55:05;;;;;;;3.00;0.73;;;16.80;70.00;;;;;;5029593;28;95575;-49
2022/02/03 19:14:36;;;;;;;2.45;0.70;;;16.70;69.50;;;;;;5026716;27;96381;-53
2022/02/03 19:28:29;;;;;;;2.45;0.90;;;16.60;69.70;;;;;;5029022;28;95243;-50
2022/02/03 20:00:31;;;;;;;1.33;0.75;;;16.40;70.00;;;;;;5027903;28;96253;-50
2022/02/03 20:12:20;;;;;;;2.47;1.30;;;16.30;70.10;;;;;;5028287;28;95887;-51
2022/02/03 20:14:51;;;;;;;1.80;0.90;;;16.30;70.20;;;;;;5027862;28;95612;-50
2022/02/03 20:17:23;;;;;;;;;;;16.30;70.20;;;;;;5023075;27;96764;-49
2022/02/03 20:19:54;;;;;;;3.88;0.85;;;16.30;70.30;;;;;;5028812;28;97116;-51
2022/02/03 20:22:29;;;;;;;1.80;0.85;;;16.20;70.20;;;;;;5024268;28;95787;-50
2022/02/03 20:25:02;;;;;;;1.70;0.88;;;16.20;70.00;;;;;;5016744;28;95753;-50
2022/02/03 20:27:33;;;;;;;0.63;0.60;;;16.20;69.80;;;;;;5016700;28;96270;-50
2022/02/03 20:30:06;;;;;;;1.95;1.02;;;16.20;69.80;;;;;;5020220;28;95929;-49
2022/02/03 20:32:40;;;;;;;2.15;1.00;;;16.20;69.80;;;;;;5013370;28;95419;-50
2022/02/03 20:35:11;;;;;;;1.13;0.90;;;16.20;63.90;;;;;;5014697;28;97642;-49
2022/02/03 20:37:42;;;;;;;;;;;16.10;69.90;;;;;;5020937;27;96563;-50
2022/02/03 20:40:13;;;;;;;1.40;0.90;;;16.10;69.90;;;;;;5020885;28;96029;-50
2022/02/03 20:42:44;;;;;;;1.58;1.00;;;16.10;69.90;;;;;;5023423;27;95555;-49
2022/02/03 20:45:15;;;;;;;2.55;1.30;;;16.10;70.00;;;;;;5016315;27;95410;-49
2022/02/03 20:47:45;;;;;;;4.53;1.17;;;16.10;70.20;;;;;;5026830;28;96103;-49
2022/02/03 20:50:20;;;;;;;2.55;1.00;;;16.20;70.50;;;;;;5025347;28;96239;-50
2022/02/03 20:52:51;;;;;;;1.98;1.00;;;16.10;70.50;;;;;;5019346;28;95791;-54
2022/02/03 20:55:21;;;;;;;2.53;0.80;;;16.10;70.50;;;;;;5022585;28;96043;-49
2022/02/03 20:57:51;;;;;;;3.90;1.25;;;16.10;70.70;;;;;;5026852;28;96138;-50
2022/02/03 21:00:24;;;;;;;1.35;0.95;;;16.10;70.70;;;;;;5021295;27;95817;-49
2022/02/03 21:05:24;;;;;;;4.00;1.02;;;16.10;70.90;;;;;;5028917;28;95281;-50
2022/02/03 21:07:55;;;;;;;2.33;1.50;;;16.10;71.00;;;;;;5028108;28;96086;-53
2022/02/03 21:10:30;;;;;;;1.20;0.70;;;16.10;71.00;;;;;;5026789;28;95968;-50
2022/02/03 21:13:01;;;;;;;2.75;0.82;;;16.10;71.20;;;;;;5026705;28;95865;-50
2022/02/03 21:15:39;;;;;;;2.22;1.05;;;16.10;64.00;;;;;;5023138;27;95666;-51
2022/02/03 21:18:12;;;;;;;1.90;1.10;;;16.00;71.20;;;;;;5027248;28;95927;-50
2022/02/03 21:20:43;;;;;;;1.85;1.00;;;16.10;72.00;;;;;;5020863;28;96447;-49
2022/02/03 21:23:15;;;;;;;5.82;1.40;;;16.10;71.60;;;;;;5019270;27;95847;-51
2022/02/03 21:25:49;;;;;;;1.48;0.93;;;16.10;71.70;;;;;;5017235;28;95625;-50
2022/02/03 21:28:22;;;;;;;5.10;1.10;;;16.10;72.40;;;;;;5025917;28;96436;-54
2022/02/03 21:30:56;;;;;;;1.85;0.90;;;16.10;72.00;;;;;;5021102;28;96461;-51
2022/02/03 21:33:33;;;;;;;3.78;0.90;;;16.10;72.00;;;;;;5018855;27;95736;-50
2022/02/03 21:36:09;;;;;;;2.30;0.88;;;16.10;72.10;;;;;;5025422;27;96379;-51
2022/02/03 21:38:43;;;;;;;3.55;0.85;;;16.10;72.20;;;;;;5024670;28;96158;-48
2022/02/03 21:41:17;;;;;;;1.58;0.65;;;16.10;72.30;;;;;;5024265;28;95808;-50
2022/02/03 21:43:50;;;;;;;3.35;1.00;;;16.10;72.40;;;;;;5025553;27;95816;-49
2022/02/03 21:46:21;;;;;;;2.58;1.42;;;16.10;72.30;;;;;;5013998;27;95773;-49
2022/02/03 21:48:54;;;;;;;1.80;1.20;;;16.10;72.50;;;;;;5019124;28;96716;-49
2022/02/03 21:51:27;;;;;;;2.70;0.73;;;16.10;72.60;;;;;;5027273;28;96399;-50
2022/02/03 21:53:59;;;;;;;3.92;0.90;;;16.20;72.60;;;;;;5026012;28;95904;-46
2022/02/03 21:56:30;;;;;;;2.15;1.23;;;16.20;72.70;;;;;;4999418;27;97108;-53
2022/02/03 21:59:08;;;;;;;1.83;0.63;;;16.20;72.80;;;;;;5012287;27;96157;-52
2022/02/03 22:01:40;;;;;;;6.05;0.80;;;16.20;72.60;;;;;;5013340;27;96487;-51
2022/02/03 22:04:11;;;;;;;2.10;1.08;;;16.30;73.10;;;;;;5014580;28;95799;-53
2022/02/03 22:06:41;;;;;;;4.18;1.75;;;16.40;73.10;;;;;;5022220;28;96519;-51
2022/02/03 22:09:12;;;;;;;3.25;0.82;;;16.50;72.70;;;;;;5021669;28;96698;-51
2022/02/03 22:11:41;;;;;;;2.88;1.00;;;16.50;72.50;;;;;;5023402;27;96388;-50
2022/02/03 22:14:12;;;;;;;1.95;0.80;;;16.60;72.40;;;;;;5023714;28;95688;-53
2022/02/03 22:16:48;;;;;;;6.22;1.50;;;16.70;72.20;;;;;;5022876;27;95978;-50
2022/02/03 22:19:19;;;;;;;2.38;0.90;;;16.70;72.00;;;;;;5022510;28;96366;-53
2022/02/03 22:22:04;;;;;;;6.07;1.63;;;16.80;72.00;;;;;;5022551;28;95874;-50
2022/02/03 22:44:04;;;;;;;5.32;0.85;;;17.10;72.70;;;;;;5000174;28;96566;-49
2022/02/03 22:46:51;;;;;;;1.80;0.80;;;17.10;72.70;;;;;;5019032;28;95708;-49
2022/02/03 22:49:23;;;;;;;2.85;0.80;;;17.10;72.60;;;;;;5011034;28;95765;-52
2022/02/03 22:51:55;;;;;;;3.42;1.15;;;17.10;72.50;;;;;;5021802;28;96542;-49
2022/02/03 22:54:26;;;;;;;3.03;0.90;;;17.10;72.50;;;;;;5019089;28;95769;-48
2022/02/03 22:56:58;;;;;;;2.40;0.90;;;17.10;72.40;;;;;;5018717;28;95749;-51
2022/02/03 23:02:18;;;;;;;3.53;1.05;;;17.20;72.30;;;;;;5019911;27;95998;-51
2022/02/03 23:04:48;;;;;;;2.47;0.80;;;17.20;72.20;;;;;;5027527;28;95772;-48
2022/02/03 23:07:23;;;;;;;1.38;0.70;;;17.20;72.20;;;;;;5024011;28;96066;-49
2022/02/03 23:10:11;;;;;;;2.55;0.70;;;17.20;72.10;;;;;;5025411;28;95859;-49
2022/02/03 23:12:58;;;;;;;2.08;0.77;;;17.30;72.10;;;;;;5029165;27;96773;-49
2022/02/03 23:21:13;;;;;;;3.35;0.80;;;17.40;72.20;;;;;;5023984;28;95379;-49
2022/02/03 23:23:39;;;;;;;6.70;1.43;;;17.40;65.30;;;;;;5020905;28;97164;-45
2022/02/03 23:26:11;;;;;;;2.38;1.05;;;17.50;72.40;;;;;;5023028;28;96850;-49
2022/02/03 23:28:42;;;;;;;3.38;1.15;;;17.50;72.50;;;;;;5027536;28;95295;-45
2022/02/03 23:31:15;;;;;;;2.35;1.00;;;17.70;72.80;;;;;;5021920;27;96005;-46
2022/02/03 23:33:47;;;;;;;5.45;1.15;;;17.70;72.70;;;;;;5024339;28;96518;-46
2022/02/03 23:36:18;;;;;;;3.40;1.20;;;17.80;72.70;;;;;;5024382;27;96666;-51
2022/02/03 23:38:57;;;;;;;4.40;1.43;;;17.80;72.60;;;;;;5018803;28;95313;-51
